createdAt,value
2022-08-18T00:02:31.976Z,13.68
2022-08-18T00:05:18.339Z,13.69
2022-08-18T00:08:05.669Z,13.69
2022-08-18T00:10:51.094Z,13.68
2022-08-18T00:13:36.634Z,13.73
2022-08-18T00:16:22.600Z,13.79
2022-08-18T00:19:09.518Z,13.82
2022-08-18T00:21:55.263Z,13.88
2022-08-18T00:24:40.758Z,13.92
2022-08-18T00:27:34.433Z,13.99
2022-08-18T00:30:22.170Z,14.04
2022-08-18T00:33:07.959Z,14.06
2022-08-18T00:35:53.623Z,14.09
2022-08-18T00:38:40.188Z,14.09
2022-08-18T00:41:26.909Z,14.05
2022-08-18T00:44:13.677Z,14.05
2022-08-18T00:46:59.013Z,14.02
2022-08-18T00:49:46.760Z,13.98
2022-08-18T00:52:32.531Z,13.96
2022-08-18T00:55:21.766Z,13.91
2022-08-18T00:58:16.813Z,13.87
2022-08-18T01:01:06.019Z,13.84
2022-08-18T01:03:58.694Z,13.79
2022-08-18T01:06:58.796Z,13.76
2022-08-18T01:09:44.419Z,13.71
2022-08-18T01:12:45.038Z,13.71
2022-08-18T01:15:32.994Z,13.66
2022-08-18T01:18:37.245Z,13.60
2022-08-18T01:21:47.776Z,13.52
2022-08-18T01:24:54.419Z,13.49
2022-08-18T01:27:42.017Z,13.48
2022-08-18T01:30:28.088Z,13.49
2022-08-18T01:33:13.978Z,13.52
2022-08-18T01:36:12.804Z,13.55
2022-08-18T01:38:58.446Z,13.55
2022-08-18T01:41:44.488Z,13.54
2022-08-18T01:44:30.053Z,13.53
2022-08-18T01:47:18.472Z,13.54
2022-08-18T01:50:05.945Z,13.49
2022-08-18T01:52:53.592Z,13.45
2022-08-18T01:55:42.732Z,13.42
2022-08-18T01:58:31.558Z,13.38
2022-08-18T02:01:17.152Z,13.36
2022-08-18T02:04:23.699Z,13.31
2022-08-18T02:07:10.521Z,13.30
2022-08-18T02:09:56.179Z,13.29
2022-08-18T02:12:44.758Z,13.27
2022-08-18T02:15:31.079Z,13.21
2022-08-18T02:18:48.533Z,13.15
2022-08-18T02:21:34.272Z,13.13
2022-08-18T02:24:20.007Z,13.09
2022-08-18T02:27:07.611Z,13.05
2022-08-18T02:29:52.961Z,13.05
2022-08-18T02:32:38.445Z,13.06
2022-08-18T02:35:23.887Z,13.10
2022-08-18T02:38:09.552Z,13.16
2022-08-18T02:41:00.590Z,13.16
2022-08-18T02:43:48.479Z,13.18
2022-08-18T02:46:34.398Z,13.15
2022-08-18T02:49:19.879Z,13.13
2022-08-18T02:52:06.112Z,13.13
2022-08-18T02:54:53.082Z,13.01
2022-08-18T02:57:46.573Z,12.91
2022-08-18T03:00:32.214Z,12.82
2022-08-18T03:03:18.437Z,12.74
2022-08-18T03:06:04.496Z,12.62
2022-08-18T03:08:51.908Z,12.56
2022-08-18T03:11:38.230Z,12.49
2022-08-18T03:14:25.538Z,12.47
2022-08-18T03:17:11.396Z,12.49
2022-08-18T03:19:58.034Z,12.51
2022-08-18T03:22:46.890Z,12.59
2022-08-18T03:25:32.675Z,12.65
2022-08-18T03:28:18.720Z,12.67
2022-08-18T03:31:03.874Z,12.73
2022-08-18T03:33:50.100Z,12.84
2022-08-18T03:36:37.153Z,12.90
2022-08-18T03:39:27.809Z,12.96
2022-08-18T03:42:14.310Z,13.00
2022-08-18T03:44:59.957Z,13.00
2022-08-18T03:47:46.160Z,12.99
2022-08-18T03:50:33.041Z,13.07
2022-08-18T03:53:18.757Z,13.13
2022-08-18T03:56:10.633Z,13.19
2022-08-18T03:58:59.900Z,13.26
2022-08-18T04:01:47.228Z,13.30
2022-08-18T04:04:32.871Z,13.33
2022-08-18T04:07:19.512Z,13.35
2022-08-18T04:10:05.473Z,13.42
2022-08-18T04:12:59.425Z,13.46
2022-08-18T04:15:44.868Z,13.48
2022-08-18T04:18:31.773Z,13.53
2022-08-18T04:21:18.498Z,13.58
2022-08-18T04:24:05.424Z,13.60
2022-08-18T04:26:50.915Z,13.63
2022-08-18T04:29:36.416Z,13.68
2022-08-18T04:32:21.702Z,13.71
2022-08-18T04:35:15.222Z,13.78
2022-08-18T04:38:00.699Z,13.82
2022-08-18T04:40:47.499Z,13.84
2022-08-18T04:43:33.805Z,13.87
2022-08-18T04:46:19.282Z,13.90
2022-08-18T04:49:12.107Z,13.91
2022-08-18T04:52:30.984Z,13.92
2022-08-18T04:55:22.502Z,13.95
2022-08-18T04:58:07.954Z,13.96
2022-08-18T05:01:01.860Z,13.98
2022-08-18T05:03:50.077Z,14.01
2022-08-18T05:06:36.648Z,14.03
2022-08-18T05:09:23.103Z,14.04
2022-08-18T05:12:12.677Z,14.04
2022-08-18T05:14:58.322Z,14.05
2022-08-18T05:17:44.567Z,14.05
2022-08-18T05:20:33.155Z,14.07
2022-08-18T05:23:20.271Z,14.07
2022-08-18T05:26:10.054Z,14.05
2022-08-18T05:28:55.782Z,14.04
2022-08-18T05:31:54.021Z,14.06
2022-08-18T05:34:40.067Z,14.04
2022-08-18T05:37:37.986Z,14.00
2022-08-18T05:40:27.041Z,13.98
2022-08-18T05:43:15.517Z,13.95
2022-08-18T05:46:03.803Z,13.94
2022-08-18T05:48:50.461Z,13.94
2022-08-18T05:51:42.719Z,13.94
2022-08-18T05:54:53.992Z,13.95
2022-08-18T05:57:51.657Z,13.99
2022-08-18T06:00:38.153Z,14.00
2022-08-18T06:03:30.461Z,14.03
2022-08-18T06:06:32.508Z,14.07
2022-08-18T06:09:25.119Z,14.11
2022-08-18T06:12:22.763Z,14.14
2022-08-18T06:15:31.418Z,14.16
2022-08-18T06:18:57.042Z,14.22
2022-08-18T06:22:02.068Z,14.27
2022-08-18T06:25:19.414Z,14.33
2022-08-18T06:28:09.216Z,14.39
2022-08-18T06:31:16.606Z,14.46
2022-08-18T06:34:40.904Z,14.56
2022-08-18T06:38:19.526Z,14.62
2022-08-18T06:41:42.578Z,14.68
2022-08-18T06:44:45.796Z,14.80
2022-08-18T06:47:59.640Z,14.86
2022-08-18T06:50:54.263Z,14.94
2022-08-18T06:54:07.757Z,15.03
2022-08-18T06:56:55.184Z,15.08
2022-08-18T06:59:40.624Z,15.17
2022-08-18T07:02:58.423Z,15.24
2022-08-18T07:06:11.556Z,15.32
2022-08-18T07:09:19.311Z,15.35
2022-08-18T07:12:11.131Z,15.43
2022-08-18T07:15:00.791Z,15.58
2022-08-18T07:17:49.151Z,15.79
2022-08-18T07:20:54.094Z,16.05
2022-08-18T07:23:40.919Z,16.36
2022-08-18T07:26:26.448Z,16.63
2022-08-18T07:29:16.151Z,16.82
2022-08-18T07:32:20.799Z,16.82
2022-08-18T07:35:09.525Z,16.79
2022-08-18T07:38:13.813Z,16.79
2022-08-18T07:41:26.266Z,16.82
2022-08-18T07:44:20.367Z,16.85
2022-08-18T07:47:18.426Z,16.89
2022-08-18T07:50:31.457Z,16.93
2022-08-18T07:53:37.711Z,17.01
2022-08-18T07:56:29.612Z,17.04
2022-08-18T07:59:27.176Z,17.06
2022-08-18T08:02:12.905Z,17.01
2022-08-18T08:05:08.081Z,17.01
2022-08-18T08:07:59.938Z,17.02
2022-08-18T08:11:07.349Z,17.05
2022-08-18T08:14:09.910Z,17.05
2022-08-18T08:17:25.494Z,17.09
2022-08-18T08:20:32.768Z,17.12
2022-08-18T08:23:45.326Z,17.15
2022-08-18T08:26:50.354Z,17.12
2022-08-18T08:29:52.364Z,17.12
2022-08-18T08:32:52.309Z,17.21
2022-08-18T08:35:48.889Z,17.38
2022-08-18T08:38:54.164Z,17.50
2022-08-18T08:41:45.965Z,17.61
2022-08-18T08:44:58.067Z,17.74
2022-08-18T08:48:08.388Z,17.83
2022-08-18T08:51:03.963Z,17.94
2022-08-18T08:53:59.555Z,18.02
2022-08-18T08:56:48.176Z,18.19
2022-08-18T08:59:35.262Z,18.31
2022-08-18T09:02:48.278Z,18.45
2022-08-18T09:05:56.602Z,18.64
2022-08-18T09:09:07.567Z,18.86
2022-08-18T09:11:55.821Z,18.96
2022-08-18T09:15:06.792Z,18.86
2022-08-18T09:17:55.694Z,18.83
2022-08-18T09:20:49.985Z,18.84
2022-08-18T09:23:42.638Z,18.88
2022-08-18T09:26:54.286Z,19.03
2022-08-18T09:29:44.352Z,19.19
2022-08-18T09:32:54.714Z,19.29
2022-08-18T09:36:10.136Z,19.42
2022-08-18T09:39:38.049Z,19.60
2022-08-18T09:42:54.729Z,19.69
2022-08-18T09:49:27.166Z,19.89
2022-08-18T09:52:39.482Z,19.91
2022-08-18T09:55:25.041Z,19.97
2022-08-18T09:58:41.530Z,20.01
2022-08-18T10:01:31.906Z,20.06
2022-08-18T10:04:29.236Z,20.09
2022-08-18T10:07:37.007Z,20.17
2022-08-18T10:11:01.538Z,20.18
2022-08-18T10:13:45.141Z,20.29
2022-08-18T10:17:23.472Z,20.40
2022-08-18T10:20:34.938Z,20.42
2022-08-18T10:26:55.260Z,20.54
2022-08-18T10:29:51.181Z,20.59
2022-08-18T10:32:46.934Z,20.55
2022-08-18T10:35:37.767Z,20.65
2022-08-18T10:38:25.446Z,20.79
2022-08-18T10:41:24.282Z,21.03
2022-08-18T10:50:44.652Z,21.51
2022-08-18T10:53:50.870Z,21.53
2022-08-18T10:57:15.604Z,21.70
2022-08-18T11:00:15.534Z,21.85
2022-08-18T11:03:50.588Z,21.69
2022-08-18T11:06:26.794Z,21.47
2022-08-18T11:09:12.561Z,21.36
2022-08-18T11:12:01.957Z,21.38
2022-08-18T11:15:26.823Z,21.30
2022-08-18T11:18:30.170Z,21.18
2022-08-18T11:21:42.231Z,21.08
2022-08-18T11:24:35.564Z,21.07
2022-08-18T11:27:26.820Z,21.09
2022-08-18T11:30:14.544Z,21.09
2022-08-18T11:33:04.457Z,21.10
2022-08-18T11:35:54.807Z,20.97
2022-08-18T11:38:42.167Z,20.80
2022-08-18T11:41:47.953Z,20.70
2022-08-18T11:44:39.351Z,20.77
2022-08-18T11:47:27.624Z,20.71
2022-08-18T11:50:28.360Z,20.60
2022-08-18T11:53:32.740Z,20.62
2022-08-18T11:56:37.948Z,20.64
2022-08-18T11:59:53.194Z,20.70
2022-08-18T12:02:32.605Z,20.73
2022-08-18T12:05:18.124Z,20.76
2022-08-18T12:08:09.146Z,20.72
2022-08-18T12:11:26.447Z,20.74
2022-08-18T12:14:31.187Z,20.73
2022-08-18T12:17:20.252Z,20.74
2022-08-18T12:20:11.851Z,20.63
2022-08-18T12:22:57.768Z,20.53
2022-08-18T12:25:43.455Z,20.45
2022-08-18T12:28:28.900Z,20.48
2022-08-18T12:31:15.085Z,20.62
2022-08-18T12:34:02.633Z,20.70
2022-08-18T12:36:48.190Z,20.67
2022-08-18T12:39:36.266Z,20.67
2022-08-18T12:42:22.173Z,20.60
2022-08-18T12:45:08.798Z,20.54
2022-08-18T12:47:54.556Z,20.50
2022-08-18T12:50:49.877Z,20.52
2022-08-18T12:53:58.144Z,20.44
2022-08-18T12:56:49.110Z,20.42
2022-08-18T12:59:38.295Z,20.39
2022-08-18T13:02:27.697Z,20.45
2022-08-18T13:05:13.276Z,20.48
2022-08-18T13:08:04.277Z,20.50
2022-08-18T13:10:51.235Z,20.61
2022-08-18T13:16:53.561Z,20.75
2022-08-18T13:19:40.300Z,20.91
2022-08-18T13:22:32.196Z,21.07
2022-08-18T13:25:33.033Z,21.33
2022-08-18T13:28:24.546Z,21.79
2022-08-18T13:31:16.258Z,22.30
2022-08-18T13:34:03.979Z,22.57
2022-08-18T13:36:50.294Z,22.80
2022-08-18T13:39:35.698Z,22.85
2022-08-18T13:42:28.576Z,23.01
2022-08-18T13:45:24.543Z,23.07
2022-08-18T13:48:11.620Z,22.92
2022-08-18T13:51:01.120Z,22.75
2022-08-18T13:54:17.432Z,22.72
2022-08-18T13:56:53.605Z,22.69
2022-08-18T13:59:46.545Z,22.92
2022-08-18T14:02:32.694Z,22.90
2022-08-18T14:05:18.330Z,22.91
2022-08-18T14:08:06.285Z,22.84
2022-08-18T14:10:55.268Z,22.99
2022-08-18T14:13:43.937Z,23.18
2022-08-18T14:16:31.473Z,23.22
2022-08-18T14:19:35.576Z,23.27
2022-08-18T14:22:43.550Z,23.36
2022-08-18T14:25:50.717Z,23.24
2022-08-18T14:28:38.401Z,23.25
2022-08-18T14:31:27.277Z,23.15
2022-08-18T14:34:13.709Z,23.27
2022-08-18T14:37:09.969Z,23.37
2022-08-18T14:39:58.497Z,23.34
2022-08-18T14:42:54.078Z,23.49
2022-08-18T14:45:47.509Z,24.03
2022-08-18T14:48:35.398Z,24.54
2022-08-18T14:51:23.408Z,25.16
2022-08-18T14:54:17.952Z,25.32
2022-08-18T14:57:09.658Z,24.89
2022-08-18T14:59:55.596Z,24.54
2022-08-18T15:02:45.040Z,23.90
2022-08-18T15:05:33.680Z,23.46
2022-08-18T15:11:12.973Z,22.86
2022-08-18T15:14:01.162Z,22.41
2022-08-18T15:16:48.876Z,21.94
2022-08-18T15:19:59.277Z,21.40
2022-08-18T15:23:00.613Z,21.38
2022-08-18T15:25:51.202Z,21.10
2022-08-18T15:28:37.014Z,20.98
2022-08-18T15:34:46.256Z,21.56
2022-08-18T15:37:38.255Z,21.96
2022-08-18T15:40:30.825Z,22.51
2022-08-18T15:43:21.470Z,23.12
2022-08-18T15:46:10.918Z,23.31
2022-08-18T15:48:59.726Z,23.40
2022-08-18T15:51:46.568Z,23.55
2022-08-18T15:54:31.840Z,23.48
2022-08-18T15:57:38.634Z,23.32
2022-08-18T16:00:24.959Z,22.98
2022-08-18T16:03:14.615Z,23.27
2022-08-18T16:06:00.298Z,23.59
2022-08-18T16:08:46.681Z,24.02
2022-08-18T16:11:32.171Z,24.41
2022-08-18T16:14:17.465Z,24.29
2022-08-18T16:17:09.094Z,23.98
2022-08-18T16:20:00.226Z,23.44
2022-08-18T16:22:48.178Z,22.98
2022-08-18T16:25:34.201Z,22.64
2022-08-18T16:28:19.935Z,22.18
2022-08-18T16:31:06.284Z,22.01
2022-08-18T16:33:57.226Z,22.13
2022-08-18T16:36:42.776Z,21.93
2022-08-18T16:39:33.666Z,22.16
2022-08-18T16:42:19.987Z,22.55
2022-08-18T16:45:06.586Z,22.84
2022-08-18T16:47:53.843Z,22.91
2022-08-18T16:50:42.558Z,22.96
2022-08-18T16:53:27.993Z,22.66
2022-08-18T16:56:29.255Z,22.70
2022-08-18T16:59:33.285Z,22.67
2022-08-18T17:02:37.336Z,23.01
2022-08-18T17:05:22.943Z,22.86
2022-08-18T17:08:09.023Z,22.74
2022-08-18T17:10:55.318Z,23.05
2022-08-18T17:13:42.349Z,22.94
2022-08-18T17:16:29.843Z,22.97
2022-08-18T17:19:15.589Z,22.61
2022-08-18T17:22:03.210Z,22.64
2022-08-18T17:24:49.775Z,22.71
2022-08-18T17:27:38.073Z,22.53
2022-08-18T17:30:30.862Z,21.88
2022-08-18T17:33:23.543Z,21.31
2022-08-18T17:36:17.106Z,21.33
2022-08-18T17:39:06.157Z,21.56
2022-08-18T17:42:10.138Z,21.52
2022-08-18T17:44:59.281Z,21.42
2022-08-18T17:48:04.565Z,21.53
2022-08-18T17:51:19.011Z,21.60
2022-08-18T17:54:23.586Z,21.66
2022-08-18T17:57:15.938Z,21.35
2022-08-18T18:00:12.205Z,21.45
2022-08-18T18:02:57.909Z,21.32
2022-08-18T18:05:49.950Z,21.14
2022-08-18T18:09:10.319Z,21.09
2022-08-18T18:11:56.029Z,21.08
2022-08-18T18:14:44.038Z,20.93
2022-08-18T18:17:32.590Z,20.75
2022-08-18T18:20:39.567Z,20.65
2022-08-18T18:23:30.944Z,20.37
2022-08-18T18:26:35.191Z,20.35
2022-08-18T18:29:37.093Z,19.78
2022-08-18T18:32:28.245Z,19.45
2022-08-18T18:35:22.149Z,19.11
2022-08-18T18:38:49.078Z,18.91
2022-08-18T18:41:39.303Z,18.69
2022-08-18T18:44:30.223Z,18.48
2022-08-18T18:47:59.955Z,18.16
2022-08-18T18:51:03.587Z,17.92
2022-08-18T18:54:23.881Z,17.68
2022-08-18T18:57:36.400Z,17.51
2022-08-18T19:00:35.457Z,17.40
2022-08-18T19:03:31.138Z,17.20
2022-08-18T19:06:29.431Z,17.09
2022-08-18T19:09:25.618Z,16.94
2022-08-18T19:12:17.201Z,16.80
2022-08-18T19:15:14.719Z,16.73
2022-08-18T19:18:08.315Z,16.61
2022-08-18T19:22:01.917Z,16.53
2022-08-18T19:24:14.880Z,16.42
2022-08-18T19:27:04.058Z,16.31
2022-08-18T19:29:52.407Z,16.22
2022-08-18T19:32:53.742Z,16.10
2022-08-18T19:35:58.712Z,16.00
2022-08-18T19:39:00.037Z,15.94
2022-08-18T19:41:56.512Z,15.87
2022-08-18T19:45:16.477Z,15.81
2022-08-18T19:48:17.984Z,15.75
2022-08-18T19:51:13.459Z,15.67
2022-08-18T19:54:17.201Z,15.59
2022-08-18T19:57:24.643Z,15.49
2022-08-18T20:00:21.640Z,15.37
2022-08-18T20:03:38.674Z,15.32
2022-08-18T20:06:53.395Z,15.23
2022-08-18T20:10:08.262Z,15.17
2022-08-18T20:13:11.988Z,15.11
2022-08-18T20:16:20.262Z,15.05
2022-08-18T20:19:44.855Z,14.96
2022-08-18T20:22:43.371Z,14.88
2022-08-18T20:25:41.568Z,14.86
2022-08-18T20:28:36.756Z,14.80
2022-08-18T20:34:53.063Z,14.68
2022-08-18T20:37:38.659Z,14.65
2022-08-18T20:40:50.123Z,14.64
2022-08-18T20:43:38.941Z,14.56
2022-08-18T20:46:43.052Z,14.52
2022-08-18T20:49:55.344Z,14.45
2022-08-18T20:52:43.273Z,14.39
2022-08-18T20:55:49.230Z,14.37
2022-08-18T20:58:49.277Z,14.38
2022-08-18T21:01:35.597Z,14.37
2022-08-18T21:04:41.194Z,14.31
2022-08-18T21:07:37.747Z,14.23
2022-08-18T21:10:29.118Z,14.21
2022-08-18T21:13:32.061Z,14.16
2022-08-18T21:16:37.835Z,14.07
2022-08-18T21:19:28.332Z,14.00
2022-08-18T21:22:14.039Z,13.97
2022-08-18T21:25:01.102Z,13.95
2022-08-18T21:27:47.176Z,13.90
2022-08-18T21:30:32.885Z,13.86
2022-08-18T21:33:20.333Z,13.81
2022-08-18T21:36:13.687Z,13.75
2022-08-18T21:39:06.674Z,13.66
2022-08-18T21:41:55.468Z,13.62
2022-08-18T21:44:47.268Z,13.54
2022-08-18T21:47:34.743Z,13.47
2022-08-18T21:50:35.234Z,13.40
2022-08-18T21:53:28.976Z,13.37
2022-08-18T21:56:28.990Z,13.38
2022-08-18T21:59:18.053Z,13.36
2022-08-18T22:02:03.959Z,13.32
2022-08-18T22:04:49.367Z,13.28
2022-08-18T22:07:35.696Z,13.23
2022-08-18T22:10:49.627Z,13.19
2022-08-18T22:14:01.924Z,13.13
2022-08-18T22:16:48.683Z,13.09
2022-08-18T22:19:34.156Z,13.12
2022-08-18T22:22:40.079Z,13.07
2022-08-18T22:25:25.742Z,13.02
2022-08-18T22:28:11.408Z,12.99
2022-08-18T22:30:57.250Z,12.95
2022-08-18T22:33:43.532Z,12.96
2022-08-18T22:36:33.453Z,12.95
2022-08-18T22:39:25.762Z,13.03
2022-08-18T22:42:12.057Z,13.13
2022-08-18T22:45:04.438Z,13.24
2022-08-18T22:47:50.668Z,13.30
2022-08-18T22:50:35.874Z,13.29
2022-08-18T22:53:21.412Z,13.31
2022-08-18T22:56:07.257Z,13.30
2022-08-18T22:58:53.265Z,13.34
2022-08-18T23:01:40.439Z,13.38
2022-08-18T23:04:26.979Z,13.41
2022-08-18T23:07:13.514Z,13.44
2022-08-18T23:09:59.136Z,13.43
2022-08-18T23:12:47.211Z,13.46
2022-08-18T23:15:43.929Z,13.47
2022-08-18T23:18:29.430Z,13.51
2022-08-18T23:21:34.980Z,13.50
2022-08-18T23:24:21.369Z,13.46
2022-08-18T23:27:06.775Z,13.35
2022-08-18T23:29:52.455Z,13.19
2022-08-18T23:32:38.142Z,13.11
2022-08-18T23:35:23.885Z,13.03
2022-08-18T23:38:10.954Z,12.95
2022-08-18T23:40:57.425Z,12.88
2022-08-18T23:43:43.484Z,12.86
2022-08-18T23:46:34.481Z,12.85
2022-08-18T23:49:20.323Z,12.82
2022-08-18T23:52:05.936Z,12.78
2022-08-18T23:54:51.567Z,12.73
2022-08-18T23:57:37.069Z,12.69
